sensor_id;sensor_type;location;lat;lon;timestamp;P1;durP1;ratioP1;P2;durP2;ratioP2
9420;SDS011;4749;51.398;5.466;2023-10-08T00:01:16;7.82;;;4.40;;
9420;SDS011;4749;51.398;5.466;2023-10-08T00:03:46;12.20;;;4.30;;
9420;SDS011;4749;51.398;5.466;2023-10-08T00:06:18;6.60;;;3.80;;
9420;SDS011;4749;51.398;5.466;2023-10-08T00:08:47;11.35;;;4.28;;
9420;SDS011;4749;51.398;5.466;2023-10-08T00:11:16;6.85;;;4.32;;
9420;SDS011;4749;51.398;5.466;2023-10-08T00:13:44;8.10;;;3.90;;
9420;SDS011;4749;51.398;5.466;2023-10-08T00:16:12;6.65;;;3.80;;
9420;SDS011;4749;51.398;5.466;2023-10-08T00:18:44;9.65;;;4.28;;
9420;SDS011;4749;51.398;5.466;2023-10-08T00:21:19;6.95;;;3.80;;
9420;SDS011;4749;51.398;5.466;2023-10-08T00:23:54;8.73;;;3.50;;
9420;SDS011;4749;51.398;5.466;2023-10-08T00:26:26;7.47;;;3.95;;
9420;SDS011;4749;51.398;5.466;2023-10-08T00:28:57;11.30;;;4.35;;
9420;SDS011;4749;51.398;5.466;2023-10-08T00:31:33;8.32;;;3.83;;
9420;SDS011;4749;51.398;5.466;2023-10-08T00:34:08;7.20;;;3.97;;
9420;SDS011;4749;51.398;5.466;2023-10-08T00:36:43;6.93;;;3.70;;
9420;SDS011;4749;51.398;5.466;2023-10-08T00:39:16;8.48;;;4.22;;
9420;SDS011;4749;51.398;5.466;2023-10-08T00:41:51;7.55;;;4.47;;
9420;SDS011;4749;51.398;5.466;2023-10-08T00:44:25;8.63;;;4.15;;
9420;SDS011;4749;51.398;5.466;2023-10-08T00:46:56;7.75;;;3.80;;
9420;SDS011;4749;51.398;5.466;2023-10-08T00:49:28;7.15;;;3.88;;
9420;SDS011;4749;51.398;5.466;2023-10-08T00:52:09;8.85;;;3.47;;
9420;SDS011;4749;51.398;5.466;2023-10-08T00:54:38;9.57;;;3.85;;
9420;SDS011;4749;51.398;5.466;2023-10-08T00:57:26;8.55;;;4.10;;
9420;SDS011;4749;51.398;5.466;2023-10-08T00:59:56;7.32;;;3.67;;
9420;SDS011;4749;51.398;5.466;2023-10-08T01:02:27;6.88;;;4.32;;
9420;SDS011;4749;51.398;5.466;2023-10-08T01:05:11;8.55;;;3.92;;
9420;SDS011;4749;51.398;5.466;2023-10-08T01:07:51;7.57;;;3.40;;
9420;SDS011;4749;51.398;5.466;2023-10-08T01:10:22;9.20;;;4.10;;
9420;SDS011;4749;51.398;5.466;2023-10-08T01:12:51;9.98;;;4.05;;
9420;SDS011;4749;51.398;5.466;2023-10-08T01:15:31;14.40;;;4.40;;
9420;SDS011;4749;51.398;5.466;2023-10-08T01:18:02;7.68;;;3.72;;
9420;SDS011;4749;51.398;5.466;2023-10-08T01:20:32;8.18;;;3.60;;
9420;SDS011;4749;51.398;5.466;2023-10-08T01:23:04;9.27;;;3.75;;
9420;SDS011;4749;51.398;5.466;2023-10-08T01:25:37;9.95;;;3.67;;
9420;SDS011;4749;51.398;5.466;2023-10-08T01:28:05;8.55;;;3.90;;
9420;SDS011;4749;51.398;5.466;2023-10-08T01:30:41;9.25;;;3.70;;
9420;SDS011;4749;51.398;5.466;2023-10-08T01:33:13;9.95;;;3.67;;
9420;SDS011;4749;51.398;5.466;2023-10-08T01:35:43;10.07;;;4.15;;
9420;SDS011;4749;51.398;5.466;2023-10-08T01:38:10;6.32;;;3.55;;
9420;SDS011;4749;51.398;5.466;2023-10-08T01:40:40;8.48;;;3.60;;
9420;SDS011;4749;51.398;5.466;2023-10-08T01:43:08;10.20;;;3.80;;
9420;SDS011;4749;51.398;5.466;2023-10-08T01:45:39;9.07;;;4.07;;
9420;SDS011;4749;51.398;5.466;2023-10-08T01:48:07;7.60;;;3.75;;
9420;SDS011;4749;51.398;5.466;2023-10-08T01:50:38;7.43;;;3.65;;
9420;SDS011;4749;51.398;5.466;2023-10-08T01:53:05;8.55;;;3.83;;
9420;SDS011;4749;51.398;5.466;2023-10-08T01:55:36;7.43;;;3.85;;
9420;SDS011;4749;51.398;5.466;2023-10-08T01:58:16;9.38;;;3.65;;
9420;SDS011;4749;51.398;5.466;2023-10-08T02:00:47;6.50;;;4.05;;
9420;SDS011;4749;51.398;5.466;2023-10-08T02:03:16;6.28;;;3.35;;
9420;SDS011;4749;51.398;5.466;2023-10-08T02:05:45;9.07;;;3.50;;
9420;SDS011;4749;51.398;5.466;2023-10-08T02:08:14;8.05;;;3.58;;
9420;SDS011;4749;51.398;5.466;2023-10-08T02:10:43;7.78;;;3.30;;
9420;SDS011;4749;51.398;5.466;2023-10-08T02:13:13;7.00;;;3.40;;
9420;SDS011;4749;51.398;5.466;2023-10-08T02:15:50;9.77;;;3.55;;
9420;SDS011;4749;51.398;5.466;2023-10-08T02:18:20;6.80;;;3.20;;
9420;SDS011;4749;51.398;5.466;2023-10-08T02:20:52;10.48;;;3.67;;
9420;SDS011;4749;51.398;5.466;2023-10-08T02:23:19;9.75;;;3.55;;
9420;SDS011;4749;51.398;5.466;2023-10-08T02:25:46;7.18;;;4.03;;
9420;SDS011;4749;51.398;5.466;2023-10-08T02:28:14;6.43;;;3.85;;
9420;SDS011;4749;51.398;5.466;2023-10-08T02:30:43;7.07;;;3.78;;
9420;SDS011;4749;51.398;5.466;2023-10-08T02:33:10;11.00;;;3.63;;
9420;SDS011;4749;51.398;5.466;2023-10-08T02:35:41;7.88;;;3.70;;
9420;SDS011;4749;51.398;5.466;2023-10-08T02:38:10;9.50;;;3.83;;
9420;SDS011;4749;51.398;5.466;2023-10-08T02:40:39;6.43;;;3.45;;
9420;SDS011;4749;51.398;5.466;2023-10-08T02:43:11;10.32;;;3.95;;
9420;SDS011;4749;51.398;5.466;2023-10-08T02:45:41;12.00;;;3.78;;
9420;SDS011;4749;51.398;5.466;2023-10-08T02:48:14;7.78;;;3.67;;
9420;SDS011;4749;51.398;5.466;2023-10-08T02:50:43;9.70;;;3.53;;
9420;SDS011;4749;51.398;5.466;2023-10-08T02:53:12;7.95;;;3.72;;
9420;SDS011;4749;51.398;5.466;2023-10-08T02:55:44;7.47;;;3.70;;
9420;SDS011;4749;51.398;5.466;2023-10-08T02:58:13;10.05;;;4.03;;
9420;SDS011;4749;51.398;5.466;2023-10-08T03:00:42;9.23;;;3.83;;
9420;SDS011;4749;51.398;5.466;2023-10-08T03:03:17;7.25;;;3.30;;
9420;SDS011;4749;51.398;5.466;2023-10-08T03:05:46;11.95;;;3.90;;
9420;SDS011;4749;51.398;5.466;2023-10-08T03:08:16;6.88;;;3.55;;
9420;SDS011;4749;51.398;5.466;2023-10-08T03:10:48;10.73;;;3.70;;
9420;SDS011;4749;51.398;5.466;2023-10-08T03:13:22;8.88;;;4.05;;
9420;SDS011;4749;51.398;5.466;2023-10-08T03:15:49;6.93;;;3.85;;
9420;SDS011;4749;51.398;5.466;2023-10-08T03:18:29;7.30;;;3.97;;
9420;SDS011;4749;51.398;5.466;2023-10-08T03:21:06;9.52;;;3.38;;
9420;SDS011;4749;51.398;5.466;2023-10-08T03:23:50;8.13;;;3.67;;
9420;SDS011;4749;51.398;5.466;2023-10-08T03:26:18;6.75;;;3.72;;
9420;SDS011;4749;51.398;5.466;2023-10-08T03:29:02;7.40;;;3.65;;
9420;SDS011;4749;51.398;5.466;2023-10-08T03:31:44;8.35;;;3.38;;
9420;SDS011;4749;51.398;5.466;2023-10-08T03:34:14;12.30;;;4.40;;
9420;SDS011;4749;51.398;5.466;2023-10-08T03:36:46;8.23;;;3.67;;
9420;SDS011;4749;51.398;5.466;2023-10-08T03:39:16;9.35;;;3.85;;
9420;SDS011;4749;51.398;5.466;2023-10-08T03:41:45;10.00;;;4.38;;
9420;SDS011;4749;51.398;5.466;2023-10-08T03:44:32;9.80;;;4.15;;
9420;SDS011;4749;51.398;5.466;2023-10-08T03:47:04;8.80;;;4.03;;
9420;SDS011;4749;51.398;5.466;2023-10-08T03:49:37;8.75;;;4.20;;
9420;SDS011;4749;51.398;5.466;2023-10-08T03:52:12;10.35;;;4.32;;
9420;SDS011;4749;51.398;5.466;2023-10-08T03:54:39;13.07;;;4.28;;
9420;SDS011;4749;51.398;5.466;2023-10-08T03:57:14;9.52;;;4.00;;
9420;SDS011;4749;51.398;5.466;2023-10-08T03:59:51;9.45;;;3.78;;
9420;SDS011;4749;51.398;5.466;2023-10-08T04:02:25;7.82;;;4.20;;
9420;SDS011;4749;51.398;5.466;2023-10-08T04:05:08;9.35;;;4.18;;
9420;SDS011;4749;51.398;5.466;2023-10-08T04:07:45;8.70;;;3.95;;
9420;SDS011;4749;51.398;5.466;2023-10-08T04:10:24;9.82;;;4.25;;
9420;SDS011;4749;51.398;5.466;2023-10-08T04:13:05;8.73;;;3.85;;
9420;SDS011;4749;51.398;5.466;2023-10-08T04:15:36;9.93;;;4.35;;
9420;SDS011;4749;51.398;5.466;2023-10-08T04:18:08;9.25;;;3.70;;
9420;SDS011;4749;51.398;5.466;2023-10-08T04:20:36;7.97;;;4.05;;
9420;SDS011;4749;51.398;5.466;2023-10-08T04:23:07;7.03;;;4.18;;
9420;SDS011;4749;51.398;5.466;2023-10-08T04:25:47;9.90;;;4.38;;
9420;SDS011;4749;51.398;5.466;2023-10-08T04:28:21;9.65;;;4.50;;
9420;SDS011;4749;51.398;5.466;2023-10-08T04:30:52;9.07;;;3.90;;
9420;SDS011;4749;51.398;5.466;2023-10-08T04:33:19;11.70;;;3.90;;
9420;SDS011;4749;51.398;5.466;2023-10-08T04:35:47;13.38;;;4.90;;
9420;SDS011;4749;51.398;5.466;2023-10-08T04:38:15;9.77;;;4.03;;
9420;SDS011;4749;51.398;5.466;2023-10-08T04:40:48;10.85;;;4.15;;
9420;SDS011;4749;51.398;5.466;2023-10-08T04:43:18;8.43;;;4.13;;
9420;SDS011;4749;51.398;5.466;2023-10-08T04:45:54;7.00;;;4.30;;
9420;SDS011;4749;51.398;5.466;2023-10-08T04:48:24;8.32;;;3.92;;
9420;SDS011;4749;51.398;5.466;2023-10-08T04:50:56;10.93;;;4.00;;
9420;SDS011;4749;51.398;5.466;2023-10-08T04:53:28;10.68;;;4.10;;
9420;SDS011;4749;51.398;5.466;2023-10-08T04:55:59;8.40;;;3.72;;
9420;SDS011;4749;51.398;5.466;2023-10-08T04:58:33;8.43;;;3.75;;
9420;SDS011;4749;51.398;5.466;2023-10-08T05:01:04;10.32;;;3.63;;
9420;SDS011;4749;51.398;5.466;2023-10-08T05:03:45;10.68;;;3.90;;
9420;SDS011;4749;51.398;5.466;2023-10-08T05:06:28;12.82;;;4.18;;
9420;SDS011;4749;51.398;5.466;2023-10-08T05:09:04;13.48;;;4.07;;
9420;SDS011;4749;51.398;5.466;2023-10-08T05:11:46;10.60;;;4.70;;
9420;SDS011;4749;51.398;5.466;2023-10-08T05:14:20;8.68;;;4.50;;
9420;SDS011;4749;51.398;5.466;2023-10-08T05:17:15;10.63;;;4.72;;
9420;SDS011;4749;51.398;5.466;2023-10-08T05:19:42;7.28;;;3.85;;
9420;SDS011;4749;51.398;5.466;2023-10-08T05:22:28;7.63;;;3.88;;
9420;SDS011;4749;51.398;5.466;2023-10-08T05:24:55;12.05;;;4.45;;
9420;SDS011;4749;51.398;5.466;2023-10-08T05:27:40;9.52;;;4.63;;
9420;SDS011;4749;51.398;5.466;2023-10-08T05:30:14;10.65;;;4.10;;
9420;SDS011;4749;51.398;5.466;2023-10-08T05:32:43;7.28;;;3.85;;
9420;SDS011;4749;51.398;5.466;2023-10-08T05:35:31;11.57;;;3.78;;
9420;SDS011;4749;51.398;5.466;2023-10-08T05:38:09;12.52;;;4.47;;
9420;SDS011;4749;51.398;5.466;2023-10-08T05:40:57;11.40;;;4.25;;
9420;SDS011;4749;51.398;5.466;2023-10-08T05:43:36;9.57;;;3.80;;
9420;SDS011;4749;51.398;5.466;2023-10-08T05:46:07;10.15;;;4.45;;
9420;SDS011;4749;51.398;5.466;2023-10-08T05:49:06;8.55;;;3.95;;
9420;SDS011;4749;51.398;5.466;2023-10-08T05:51:34;7.35;;;4.05;;
9420;SDS011;4749;51.398;5.466;2023-10-08T05:57:08;9.80;;;4.10;;
9420;SDS011;4749;51.398;5.466;2023-10-08T05:59:39;8.98;;;4.43;;
9420;SDS011;4749;51.398;5.466;2023-10-08T06:02:28;8.95;;;4.03;;
9420;SDS011;4749;51.398;5.466;2023-10-08T06:05:00;7.45;;;3.78;;
9420;SDS011;4749;51.398;5.466;2023-10-08T06:07:52;10.75;;;4.55;;
9420;SDS011;4749;51.398;5.466;2023-10-08T06:10:31;10.15;;;4.70;;
9420;SDS011;4749;51.398;5.466;2023-10-08T06:13:04;12.93;;;4.10;;
9420;SDS011;4749;51.398;5.466;2023-10-08T06:15:43;9.60;;;4.57;;
9420;SDS011;4749;51.398;5.466;2023-10-08T06:18:31;12.07;;;4.60;;
9420;SDS011;4749;51.398;5.466;2023-10-08T06:21:00;9.27;;;4.70;;
9420;SDS011;4749;51.398;5.466;2023-10-08T06:23:40;12.95;;;4.93;;
9420;SDS011;4749;51.398;5.466;2023-10-08T06:26:12;17.20;;;4.82;;
9420;SDS011;4749;51.398;5.466;2023-10-08T06:28:41;10.88;;;4.55;;
9420;SDS011;4749;51.398;5.466;2023-10-08T06:31:10;10.60;;;4.45;;
9420;SDS011;4749;51.398;5.466;2023-10-08T06:33:39;16.05;;;4.88;;
9420;SDS011;4749;51.398;5.466;2023-10-08T06:36:08;12.27;;;5.00;;
9420;SDS011;4749;51.398;5.466;2023-10-08T06:38:40;11.57;;;4.88;;
9420;SDS011;4749;51.398;5.466;2023-10-08T06:41:16;11.88;;;5.45;;
9420;SDS011;4749;51.398;5.466;2023-10-08T06:43:59;12.45;;;4.28;;
9420;SDS011;4749;51.398;5.466;2023-10-08T06:46:29;7.82;;;4.25;;
9420;SDS011;4749;51.398;5.466;2023-10-08T06:49:06;12.60;;;5.82;;
9420;SDS011;4749;51.398;5.466;2023-10-08T06:51:41;12.00;;;4.72;;
9420;SDS011;4749;51.398;5.466;2023-10-08T06:54:11;11.02;;;4.25;;
9420;SDS011;4749;51.398;5.466;2023-10-08T06:56:44;9.20;;;4.63;;
9420;SDS011;4749;51.398;5.466;2023-10-08T06:59:19;11.38;;;5.07;;
9420;SDS011;4749;51.398;5.466;2023-10-08T07:01:50;12.85;;;4.78;;
9420;SDS011;4749;51.398;5.466;2023-10-08T07:04:18;10.95;;;4.68;;
9420;SDS011;4749;51.398;5.466;2023-10-08T07:06:48;9.25;;;4.57;;
9420;SDS011;4749;51.398;5.466;2023-10-08T07:09:17;11.85;;;4.60;;
9420;SDS011;4749;51.398;5.466;2023-10-08T07:11:54;10.38;;;4.57;;
9420;SDS011;4749;51.398;5.466;2023-10-08T07:14:26;9.20;;;4.65;;
9420;SDS011;4749;51.398;5.466;2023-10-08T07:16:59;11.98;;;4.80;;
9420;SDS011;4749;51.398;5.466;2023-10-08T07:19:28;11.13;;;5.00;;
9420;SDS011;4749;51.398;5.466;2023-10-08T07:22:07;6.63;;;4.25;;
9420;SDS011;4749;51.398;5.466;2023-10-08T07:24:48;11.35;;;5.07;;
9420;SDS011;4749;51.398;5.466;2023-10-08T07:27:18;13.40;;;5.15;;
9420;SDS011;4749;51.398;5.466;2023-10-08T07:29:50;12.00;;;5.35;;
9420;SDS011;4749;51.398;5.466;2023-10-08T07:32:23;10.70;;;5.47;;
9420;SDS011;4749;51.398;5.466;2023-10-08T07:34:53;13.35;;;5.55;;
9420;SDS011;4749;51.398;5.466;2023-10-08T07:37:24;11.63;;;4.93;;
9420;SDS011;4749;51.398;5.466;2023-10-08T07:39:52;13.77;;;6.05;;
9420;SDS011;4749;51.398;5.466;2023-10-08T07:42:21;10.70;;;5.30;;
9420;SDS011;4749;51.398;5.466;2023-10-08T07:44:48;13.02;;;5.63;;
9420;SDS011;4749;51.398;5.466;2023-10-08T07:47:20;12.27;;;6.00;;
9420;SDS011;4749;51.398;5.466;2023-10-08T07:49:48;11.98;;;6.32;;
9420;SDS011;4749;51.398;5.466;2023-10-08T07:52:17;15.95;;;5.82;;
9420;SDS011;4749;51.398;5.466;2023-10-08T07:54:44;9.88;;;6.07;;
9420;SDS011;4749;51.398;5.466;2023-10-08T07:57:12;11.73;;;6.80;;
9420;SDS011;4749;51.398;5.466;2023-10-08T07:59:43;15.13;;;6.47;;
9420;SDS011;4749;51.398;5.466;2023-10-08T08:02:15;12.32;;;6.55;;
9420;SDS011;4749;51.398;5.466;2023-10-08T08:04:50;12.35;;;5.95;;
9420;SDS011;4749;51.398;5.466;2023-10-08T08:07:19;12.68;;;5.95;;
9420;SDS011;4749;51.398;5.466;2023-10-08T08:09:48;17.08;;;6.53;;
9420;SDS011;4749;51.398;5.466;2023-10-08T08:12:18;9.70;;;6.28;;
9420;SDS011;4749;51.398;5.466;2023-10-08T08:14:51;19.20;;;7.18;;
9420;SDS011;4749;51.398;5.466;2023-10-08T08:17:19;16.35;;;6.63;;
9420;SDS011;4749;51.398;5.466;2023-10-08T08:19:50;13.80;;;6.55;;
9420;SDS011;4749;51.398;5.466;2023-10-08T08:22:19;14.90;;;7.68;;
9420;SDS011;4749;51.398;5.466;2023-10-08T08:24:49;16.20;;;7.40;;
9420;SDS011;4749;51.398;5.466;2023-10-08T08:27:24;16.42;;;7.28;;
9420;SDS011;4749;51.398;5.466;2023-10-08T08:29:59;15.52;;;7.55;;
9420;SDS011;4749;51.398;5.466;2023-10-08T08:32:37;18.50;;;7.57;;
9420;SDS011;4749;51.398;5.466;2023-10-08T08:35:06;15.43;;;7.95;;
9420;SDS011;4749;51.398;5.466;2023-10-08T08:37:35;22.92;;;8.25;;
9420;SDS011;4749;51.398;5.466;2023-10-08T08:40:07;14.93;;;7.82;;
9420;SDS011;4749;51.398;5.466;2023-10-08T08:42:49;19.13;;;8.13;;
9420;SDS011;4749;51.398;5.466;2023-10-08T08:45:21;17.42;;;7.20;;
9420;SDS011;4749;51.398;5.466;2023-10-08T08:47:53;15.43;;;7.75;;
9420;SDS011;4749;51.398;5.466;2023-10-08T08:50:22;18.30;;;9.00;;
9420;SDS011;4749;51.398;5.466;2023-10-08T08:52:50;20.58;;;9.05;;
9420;SDS011;4749;51.398;5.466;2023-10-08T08:55:18;16.88;;;8.88;;
9420;SDS011;4749;51.398;5.466;2023-10-08T08:57:49;15.45;;;8.50;;
9420;SDS011;4749;51.398;5.466;2023-10-08T09:00:19;17.55;;;9.35;;
9420;SDS011;4749;51.398;5.466;2023-10-08T09:02:47;19.58;;;9.68;;
9420;SDS011;4749;51.398;5.466;2023-10-08T09:05:16;20.17;;;8.60;;
9420;SDS011;4749;51.398;5.466;2023-10-08T09:07:51;19.63;;;9.18;;
9420;SDS011;4749;51.398;5.466;2023-10-08T09:10:25;20.88;;;9.80;;
9420;SDS011;4749;51.398;5.466;2023-10-08T09:12:56;19.38;;;8.65;;
9420;SDS011;4749;51.398;5.466;2023-10-08T09:15:26;20.90;;;9.75;;
9420;SDS011;4749;51.398;5.466;2023-10-08T09:17:54;20.92;;;10.57;;
9420;SDS011;4749;51.398;5.466;2023-10-08T09:20:22;25.33;;;10.50;;
9420;SDS011;4749;51.398;5.466;2023-10-08T09:23:09;22.45;;;10.27;;
9420;SDS011;4749;51.398;5.466;2023-10-08T09:25:48;20.23;;;10.68;;
9420;SDS011;4749;51.398;5.466;2023-10-08T09:28:17;20.52;;;9.98;;
9420;SDS011;4749;51.398;5.466;2023-10-08T09:30:44;19.73;;;9.35;;
9420;SDS011;4749;51.398;5.466;2023-10-08T09:33:12;25.00;;;11.30;;
9420;SDS011;4749;51.398;5.466;2023-10-08T09:35:42;22.90;;;10.82;;
9420;SDS011;4749;51.398;5.466;2023-10-08T09:38:10;19.27;;;11.57;;
9420;SDS011;4749;51.398;5.466;2023-10-08T09:40:39;23.08;;;10.85;;
9420;SDS011;4749;51.398;5.466;2023-10-08T09:43:09;21.63;;;10.40;;
9420;SDS011;4749;51.398;5.466;2023-10-08T09:45:37;19.67;;;11.25;;
9420;SDS011;4749;51.398;5.466;2023-10-08T09:48:10;27.33;;;12.00;;
9420;SDS011;4749;51.398;5.466;2023-10-08T09:50:42;25.35;;;11.65;;
9420;SDS011;4749;51.398;5.466;2023-10-08T09:53:12;24.00;;;11.00;;
9420;SDS011;4749;51.398;5.466;2023-10-08T09:55:44;27.27;;;13.02;;
9420;SDS011;4749;51.398;5.466;2023-10-08T09:58:23;25.67;;;11.38;;
9420;SDS011;4749;51.398;5.466;2023-10-08T10:00:56;26.42;;;12.10;;
9420;SDS011;4749;51.398;5.466;2023-10-08T10:03:27;24.77;;;11.93;;
9420;SDS011;4749;51.398;5.466;2023-10-08T10:05:55;21.20;;;10.85;;
9420;SDS011;4749;51.398;5.466;2023-10-08T10:08:26;26.85;;;11.32;;
9420;SDS011;4749;51.398;5.466;2023-10-08T10:11:02;28.23;;;11.50;;
9420;SDS011;4749;51.398;5.466;2023-10-08T10:16:28;25.10;;;11.15;;
9420;SDS011;4749;51.398;5.466;2023-10-08T10:18:55;22.17;;;11.57;;
9420;SDS011;4749;51.398;5.466;2023-10-08T10:21:24;26.42;;;12.07;;
9420;SDS011;4749;51.398;5.466;2023-10-08T10:23:55;29.10;;;12.05;;
9420;SDS011;4749;51.398;5.466;2023-10-08T10:26:24;26.48;;;12.48;;
9420;SDS011;4749;51.398;5.466;2023-10-08T10:31:46;26.35;;;11.82;;
9420;SDS011;4749;51.398;5.466;2023-10-08T10:34:23;25.45;;;12.23;;
9420;SDS011;4749;51.398;5.466;2023-10-08T10:36:55;24.90;;;11.18;;
9420;SDS011;4749;51.398;5.466;2023-10-08T10:39:26;22.95;;;12.55;;
9420;SDS011;4749;51.398;5.466;2023-10-08T10:41:57;26.90;;;12.43;;
9420;SDS011;4749;51.398;5.466;2023-10-08T10:44:33;26.30;;;12.02;;
9420;SDS011;4749;51.398;5.466;2023-10-08T10:47:05;23.42;;;10.88;;
9420;SDS011;4749;51.398;5.466;2023-10-08T10:49:45;24.00;;;11.18;;
9420;SDS011;4749;51.398;5.466;2023-10-08T10:52:32;20.75;;;10.65;;
9420;SDS011;4749;51.398;5.466;2023-10-08T10:55:20;24.50;;;11.65;;
9420;SDS011;4749;51.398;5.466;2023-10-08T10:57:50;21.92;;;10.73;;
9420;SDS011;4749;51.398;5.466;2023-10-08T11:00:41;24.00;;;10.93;;
9420;SDS011;4749;51.398;5.466;2023-10-08T11:03:09;20.48;;;11.02;;
9420;SDS011;4749;51.398;5.466;2023-10-08T11:05:45;23.08;;;11.57;;
9420;SDS011;4749;51.398;5.466;2023-10-08T11:08:18;25.92;;;12.05;;
9420;SDS011;4749;51.398;5.466;2023-10-08T11:10:46;23.02;;;11.10;;
9420;SDS011;4749;51.398;5.466;2023-10-08T11:13:21;22.85;;;11.70;;
9420;SDS011;4749;51.398;5.466;2023-10-08T11:15:55;23.85;;;12.07;;
9420;SDS011;4749;51.398;5.466;2023-10-08T11:18:26;26.70;;;11.52;;
9420;SDS011;4749;51.398;5.466;2023-10-08T11:21:06;30.42;;;13.02;;
9420;SDS011;4749;51.398;5.466;2023-10-08T11:23:44;25.50;;;12.70;;
9420;SDS011;4749;51.398;5.466;2023-10-08T11:26:19;27.27;;;13.32;;
9420;SDS011;4749;51.398;5.466;2023-10-08T11:29:13;29.20;;;13.35;;
9420;SDS011;4749;51.398;5.466;2023-10-08T11:31:44;26.92;;;13.40;;
9420;SDS011;4749;51.398;5.466;2023-10-08T11:34:11;24.45;;;14.02;;
9420;SDS011;4749;51.398;5.466;2023-10-08T11:36:40;31.27;;;12.60;;
9420;SDS011;4749;51.398;5.466;2023-10-08T11:39:20;25.67;;;13.02;;
9420;SDS011;4749;51.398;5.466;2023-10-08T11:42:00;30.45;;;13.38;;
9420;SDS011;4749;51.398;5.466;2023-10-08T11:44:33;28.88;;;13.48;;
9420;SDS011;4749;51.398;5.466;2023-10-08T11:47:04;30.67;;;14.50;;
9420;SDS011;4749;51.398;5.466;2023-10-08T11:49:38;26.85;;;13.02;;
9420;SDS011;4749;51.398;5.466;2023-10-08T11:52:14;27.55;;;14.27;;
9420;SDS011;4749;51.398;5.466;2023-10-08T11:54:42;32.30;;;14.07;;
9420;SDS011;4749;51.398;5.466;2023-10-08T11:57:11;32.53;;;14.15;;
9420;SDS011;4749;51.398;5.466;2023-10-08T11:59:38;29.48;;;13.93;;
9420;SDS011;4749;51.398;5.466;2023-10-08T12:02:06;33.63;;;15.15;;
9420;SDS011;4749;51.398;5.466;2023-10-08T12:04:33;25.20;;;13.52;;
9420;SDS011;4749;51.398;5.466;2023-10-08T12:07:02;27.50;;;13.48;;
9420;SDS011;4749;51.398;5.466;2023-10-08T12:09:33;30.90;;;15.23;;
9420;SDS011;4749;51.398;5.466;2023-10-08T12:12:04;26.77;;;13.98;;
9420;SDS011;4749;51.398;5.466;2023-10-08T12:14:36;23.95;;;14.18;;
9420;SDS011;4749;51.398;5.466;2023-10-08T12:17:04;28.98;;;14.80;;
9420;SDS011;4749;51.398;5.466;2023-10-08T12:19:37;25.08;;;14.40;;
9420;SDS011;4749;51.398;5.466;2023-10-08T12:22:07;21.88;;;13.85;;
9420;SDS011;4749;51.398;5.466;2023-10-08T12:24:35;26.40;;;14.93;;
9420;SDS011;4749;51.398;5.466;2023-10-08T12:27:04;23.10;;;13.65;;
9420;SDS011;4749;51.398;5.466;2023-10-08T12:29:31;25.38;;;14.98;;
9420;SDS011;4749;51.398;5.466;2023-10-08T12:31:59;25.92;;;15.10;;
9420;SDS011;4749;51.398;5.466;2023-10-08T12:34:29;30.65;;;15.93;;
9420;SDS011;4749;51.398;5.466;2023-10-08T12:36:56;25.00;;;15.15;;
9420;SDS011;4749;51.398;5.466;2023-10-08T12:39:23;22.98;;;15.10;;
9420;SDS011;4749;51.398;5.466;2023-10-08T12:41:54;28.98;;;15.48;;
9420;SDS011;4749;51.398;5.466;2023-10-08T12:44:24;30.15;;;16.08;;
9420;SDS011;4749;51.398;5.466;2023-10-08T12:46:51;38.35;;;17.27;;
9420;SDS011;4749;51.398;5.466;2023-10-08T12:49:18;26.35;;;15.65;;
9420;SDS011;4749;51.398;5.466;2023-10-08T12:51:47;25.10;;;16.10;;
9420;SDS011;4749;51.398;5.466;2023-10-08T12:54:14;30.23;;;16.75;;
9420;SDS011;4749;51.398;5.466;2023-10-08T12:56:49;27.98;;;16.35;;
9420;SDS011;4749;51.398;5.466;2023-10-08T12:59:21;26.35;;;16.10;;
9420;SDS011;4749;51.398;5.466;2023-10-08T13:01:50;29.10;;;15.50;;
9420;SDS011;4749;51.398;5.466;2023-10-08T13:04:21;23.90;;;14.90;;
9420;SDS011;4749;51.398;5.466;2023-10-08T13:06:55;26.08;;;15.77;;
9420;SDS011;4749;51.398;5.466;2023-10-08T13:09:27;22.48;;;14.18;;
9420;SDS011;4749;51.398;5.466;2023-10-08T13:12:04;21.25;;;14.38;;
9420;SDS011;4749;51.398;5.466;2023-10-08T13:14:31;26.27;;;14.98;;
9420;SDS011;4749;51.398;5.466;2023-10-08T13:17:02;28.52;;;15.02;;
9420;SDS011;4749;51.398;5.466;2023-10-08T13:19:29;25.42;;;15.05;;
9420;SDS011;4749;51.398;5.466;2023-10-08T13:22:00;27.95;;;14.95;;
9420;SDS011;4749;51.398;5.466;2023-10-08T13:24:27;31.55;;;14.40;;
9420;SDS011;4749;51.398;5.466;2023-10-08T13:26:55;30.35;;;16.35;;
9420;SDS011;4749;51.398;5.466;2023-10-08T13:29:25;32.33;;;15.60;;
9420;SDS011;4749;51.398;5.466;2023-10-08T13:31:53;34.20;;;15.38;;
9420;SDS011;4749;51.398;5.466;2023-10-08T13:34:20;32.40;;;16.88;;
9420;SDS011;4749;51.398;5.466;2023-10-08T13:36:48;26.35;;;15.18;;
9420;SDS011;4749;51.398;5.466;2023-10-08T13:39:16;29.08;;;15.85;;
9420;SDS011;4749;51.398;5.466;2023-10-08T13:41:48;24.05;;;15.18;;
9420;SDS011;4749;51.398;5.466;2023-10-08T13:44:15;25.52;;;16.17;;
9420;SDS011;4749;51.398;5.466;2023-10-08T13:46:44;29.98;;;16.25;;
9420;SDS011;4749;51.398;5.466;2023-10-08T13:49:16;32.47;;;16.00;;
9420;SDS011;4749;51.398;5.466;2023-10-08T13:51:45;31.33;;;15.82;;
9420;SDS011;4749;51.398;5.466;2023-10-08T13:54:16;28.83;;;16.80;;
9420;SDS011;4749;51.398;5.466;2023-10-08T13:56:46;26.42;;;14.82;;
9420;SDS011;4749;51.398;5.466;2023-10-08T13:59:15;26.52;;;15.38;;
9420;SDS011;4749;51.398;5.466;2023-10-08T14:01:44;26.13;;;16.05;;
9420;SDS011;4749;51.398;5.466;2023-10-08T14:04:19;29.20;;;15.60;;
9420;SDS011;4749;51.398;5.466;2023-10-08T14:06:47;40.92;;;17.88;;
9420;SDS011;4749;51.398;5.466;2023-10-08T14:09:19;29.73;;;15.55;;
9420;SDS011;4749;51.398;5.466;2023-10-08T14:11:48;41.63;;;18.60;;
9420;SDS011;4749;51.398;5.466;2023-10-08T14:14:17;29.52;;;14.18;;
9420;SDS011;4749;51.398;5.466;2023-10-08T14:16:46;38.50;;;17.38;;
9420;SDS011;4749;51.398;5.466;2023-10-08T14:19:19;29.35;;;14.98;;
9420;SDS011;4749;51.398;5.466;2023-10-08T14:21:54;30.83;;;17.50;;
9420;SDS011;4749;51.398;5.466;2023-10-08T14:24:30;34.40;;;16.77;;
9420;SDS011;4749;51.398;5.466;2023-10-08T14:27:04;30.05;;;16.92;;
9420;SDS011;4749;51.398;5.466;2023-10-08T14:29:43;35.67;;;18.08;;
9420;SDS011;4749;51.398;5.466;2023-10-08T14:32:18;31.23;;;18.15;;
9420;SDS011;4749;51.398;5.466;2023-10-08T14:34:46;32.42;;;19.95;;
9420;SDS011;4749;51.398;5.466;2023-10-08T14:37:14;31.17;;;17.83;;
9420;SDS011;4749;51.398;5.466;2023-10-08T14:40:01;36.42;;;20.42;;
9420;SDS011;4749;51.398;5.466;2023-10-08T14:42:47;33.85;;;18.80;;
9420;SDS011;4749;51.398;5.466;2023-10-08T14:45:30;44.20;;;20.38;;
9420;SDS011;4749;51.398;5.466;2023-10-08T14:48:07;39.03;;;21.42;;
9420;SDS011;4749;51.398;5.466;2023-10-08T14:50:38;36.20;;;21.05;;
9420;SDS011;4749;51.398;5.466;2023-10-08T14:53:06;32.00;;;18.83;;
9420;SDS011;4749;51.398;5.466;2023-10-08T14:55:34;33.67;;;19.73;;
9420;SDS011;4749;51.398;5.466;2023-10-08T14:58:04;38.28;;;19.45;;
9420;SDS011;4749;51.398;5.466;2023-10-08T15:00:37;34.55;;;20.83;;
9420;SDS011;4749;51.398;5.466;2023-10-08T15:03:06;34.63;;;20.90;;
9420;SDS011;4749;51.398;5.466;2023-10-08T15:05:35;33.78;;;21.30;;
9420;SDS011;4749;51.398;5.466;2023-10-08T15:08:04;36.53;;;21.23;;
9420;SDS011;4749;51.398;5.466;2023-10-08T15:10:37;38.17;;;21.02;;
9420;SDS011;4749;51.398;5.466;2023-10-08T15:13:05;37.25;;;20.85;;
9420;SDS011;4749;51.398;5.466;2023-10-08T15:15:33;37.58;;;20.27;;
9420;SDS011;4749;51.398;5.466;2023-10-08T15:18:01;34.67;;;20.17;;
9420;SDS011;4749;51.398;5.466;2023-10-08T15:20:33;36.92;;;20.40;;
9420;SDS011;4749;51.398;5.466;2023-10-08T15:23:00;40.97;;;21.33;;
9420;SDS011;4749;51.398;5.466;2023-10-08T15:25:27;36.28;;;20.60;;
9420;SDS011;4749;51.398;5.466;2023-10-08T15:27:55;34.20;;;19.65;;
9420;SDS011;4749;51.398;5.466;2023-10-08T15:30:22;34.75;;;20.33;;
9420;SDS011;4749;51.398;5.466;2023-10-08T15:32:52;35.90;;;19.50;;
9420;SDS011;4749;51.398;5.466;2023-10-08T15:35:20;31.58;;;19.20;;
9420;SDS011;4749;51.398;5.466;2023-10-08T15:37:51;32.65;;;20.13;;
9420;SDS011;4749;51.398;5.466;2023-10-08T15:40:20;34.15;;;20.27;;